sensor_id;sensor_type;location;lat;lon;timestamp;pressure;altitude;pressure_sealevel;temperature;humidity
51849;BME280;38952;51.090;-1.832;2023-05-08T00:00:21;100809.78;;;10.75;97.02
51849;BME280;38952;51.090;-1.832;2023-05-08T00:02:47;100805.34;;;10.69;97.31
51849;BME280;38952;51.090;-1.832;2023-05-08T00:05:13;100789.41;;;10.60;97.48
51849;BME280;38952;51.090;-1.832;2023-05-08T00:07:39;100796.50;;;10.61;97.43
51849;BME280;38952;51.090;-1.832;2023-05-08T00:10:05;100789.91;;;10.57;97.66
51849;BME280;38952;51.090;-1.832;2023-05-08T00:12:31;100784.38;;;10.52;97.75
51849;BME280;38952;51.090;-1.832;2023-05-08T00:14:57;100784.91;;;10.49;98.10
51849;BME280;38952;51.090;-1.832;2023-05-08T00:17:22;100792.53;;;10.47;98.15
51849;BME280;38952;51.090;-1.832;2023-05-08T00:19:48;100780.41;;;10.38;98.44
51849;BME280;38952;51.090;-1.832;2023-05-08T00:22:13;100788.59;;;10.38;98.78
51849;BME280;38952;51.090;-1.832;2023-05-08T00:24:39;100791.25;;;10.33;99.71
51849;BME280;38952;51.090;-1.832;2023-05-08T00:27:04;100788.44;;;10.27;99.45
51849;BME280;38952;51.090;-1.832;2023-05-08T00:29:30;100785.66;;;10.22;99.87
51849;BME280;38952;51.090;-1.832;2023-05-08T00:31:56;100788.06;;;10.19;100.00
51849;BME280;38952;51.090;-1.832;2023-05-08T00:34:21;100783.06;;;10.10;100.00
51849;BME280;38952;51.090;-1.832;2023-05-08T00:36:47;100786.66;;;10.16;100.00
51849;BME280;38952;51.090;-1.832;2023-05-08T00:39:12;100778.41;;;10.11;100.00
51849;BME280;38952;51.090;-1.832;2023-05-08T00:41:37;100782.22;;;10.10;100.00
51849;BME280;38952;51.090;-1.832;2023-05-08T00:44:12;100768.75;;;10.03;99.95
51849;BME280;38952;51.090;-1.832;2023-05-08T00:46:40;100782.56;;;10.13;100.00
51849;BME280;38952;51.090;-1.832;2023-05-08T00:49:07;100772.19;;;10.16;100.00
51849;BME280;38952;51.090;-1.832;2023-05-08T00:51:35;100783.63;;;10.35;100.00
51849;BME280;38952;51.090;-1.832;2023-05-08T00:54:02;100768.38;;;10.39;100.00
51849;BME280;38952;51.090;-1.832;2023-05-08T00:56:29;100778.66;;;10.54;100.00
51849;BME280;38952;51.090;-1.832;2023-05-08T00:58:55;100773.19;;;10.54;100.00
51849;BME280;38952;51.090;-1.832;2023-05-08T01:01:21;100762.00;;;10.55;100.00
51849;BME280;38952;51.090;-1.832;2023-05-08T01:03:46;100755.81;;;10.65;100.00
51849;BME280;38952;51.090;-1.832;2023-05-08T01:06:12;100766.03;;;10.75;100.00
51849;BME280;38952;51.090;-1.832;2023-05-08T01:08:38;100756.16;;;10.74;100.00
51849;BME280;38952;51.090;-1.832;2023-05-08T01:11:17;100756.19;;;10.79;100.00
51849;BME280;38952;51.090;-1.832;2023-05-08T01:13:49;100770.75;;;10.85;100.00
51849;BME280;38952;51.090;-1.832;2023-05-08T01:16:20;100758.38;;;10.77;100.00
51849;BME280;38952;51.090;-1.832;2023-05-08T01:21:47;100758.63;;;10.75;100.00
51849;BME280;38952;51.090;-1.832;2023-05-08T01:24:41;100765.00;;;10.81;100.00
51849;BME280;38952;51.090;-1.832;2023-05-08T01:32:56;100749.97;;;10.56;100.00
51849;BME280;38952;51.090;-1.832;2023-05-08T01:35:42;100769.13;;;10.56;100.00
51849;BME280;38952;51.090;-1.832;2023-05-08T01:38:15;100761.59;;;10.41;100.00
51849;BME280;38952;51.090;-1.832;2023-05-08T01:43:29;100762.25;;;10.31;100.00
51849;BME280;38952;51.090;-1.832;2023-05-08T01:45:56;100755.34;;;10.24;100.00
51849;BME280;38952;51.090;-1.832;2023-05-08T01:48:29;100763.59;;;10.29;100.00
51849;BME280;38952;51.090;-1.832;2023-05-08T01:51:04;100758.63;;;10.26;100.00
51849;BME280;38952;51.090;-1.832;2023-05-08T01:53:41;100754.56;;;10.28;100.00
51849;BME280;38952;51.090;-1.832;2023-05-08T01:56:11;100749.19;;;10.34;100.00
51849;BME280;38952;51.090;-1.832;2023-05-08T01:58:38;100756.41;;;10.45;100.00
51849;BME280;38952;51.090;-1.832;2023-05-08T02:01:07;100753.75;;;10.50;100.00
51849;BME280;38952;51.090;-1.832;2023-05-08T02:03:33;100765.31;;;10.57;100.00
51849;BME280;38952;51.090;-1.832;2023-05-08T02:06:01;100754.13;;;10.59;100.00
51849;BME280;38952;51.090;-1.832;2023-05-08T02:08:28;100742.03;;;10.55;100.00
51849;BME280;38952;51.090;-1.832;2023-05-08T02:10:55;100755.44;;;10.56;100.00
51849;BME280;38952;51.090;-1.832;2023-05-08T02:13:22;100748.56;;;10.54;100.00
51849;BME280;38952;51.090;-1.832;2023-05-08T02:15:50;100756.53;;;10.55;100.00
51849;BME280;38952;51.090;-1.832;2023-05-08T02:18:19;100745.53;;;10.50;100.00
51849;BME280;38952;51.090;-1.832;2023-05-08T02:20:48;100751.78;;;10.45;100.00
51849;BME280;38952;51.090;-1.832;2023-05-08T02:23:15;100749.53;;;10.42;100.00
51849;BME280;38952;51.090;-1.832;2023-05-08T02:25:42;100752.53;;;10.41;100.00
51849;BME280;38952;51.090;-1.832;2023-05-08T02:28:09;100752.59;;;10.46;100.00
51849;BME280;38952;51.090;-1.832;2023-05-08T02:30:35;100754.31;;;10.52;100.00
51849;BME280;38952;51.090;-1.832;2023-05-08T02:33:02;100745.59;;;10.55;100.00
51849;BME280;38952;51.090;-1.832;2023-05-08T02:35:30;100746.19;;;10.62;100.00
51849;BME280;38952;51.090;-1.832;2023-05-08T02:37:57;100736.59;;;10.60;100.00
51849;BME280;38952;51.090;-1.832;2023-05-08T02:40:25;100730.94;;;10.67;100.00
51849;BME280;38952;51.090;-1.832;2023-05-08T02:42:52;100734.84;;;10.76;100.00
51849;BME280;38952;51.090;-1.832;2023-05-08T02:45:17;100734.91;;;10.81;100.00
51849;BME280;38952;51.090;-1.832;2023-05-08T02:50:50;100734.97;;;10.91;100.00
51849;BME280;38952;51.090;-1.832;2023-05-08T02:53:28;100731.13;;;10.87;100.00
51849;BME280;38952;51.090;-1.832;2023-05-08T02:56:06;100737.06;;;10.79;100.00
51849;BME280;38952;51.090;-1.832;2023-05-08T02:58:44;100724.38;;;10.68;100.00
51849;BME280;38952;51.090;-1.832;2023-05-08T03:01:20;100723.81;;;10.65;100.00
51849;BME280;38952;51.090;-1.832;2023-05-08T03:03:48;100724.59;;;10.61;100.00
51849;BME280;38952;51.090;-1.832;2023-05-08T03:06:20;100722.06;;;10.54;100.00
51849;BME280;38952;51.090;-1.832;2023-05-08T03:08:47;100722.06;;;10.54;100.00
51849;BME280;38952;51.090;-1.832;2023-05-08T03:11:17;100722.66;;;10.61;100.00
51849;BME280;38952;51.090;-1.832;2023-05-08T03:13:45;100728.13;;;10.61;100.00
51849;BME280;38952;51.090;-1.832;2023-05-08T03:16:19;100718.59;;;10.64;100.00
51849;BME280;38952;51.090;-1.832;2023-05-08T03:21:18;100726.59;;;10.71;100.00
51849;BME280;38952;51.090;-1.832;2023-05-08T03:23:46;100716.69;;;10.64;100.00
51849;BME280;38952;51.090;-1.832;2023-05-08T03:26:16;100707.31;;;10.55;100.00
51849;BME280;38952;51.090;-1.832;2023-05-08T03:28:46;100708.88;;;10.46;100.00
51849;BME280;38952;51.090;-1.832;2023-05-08T03:31:12;100709.06;;;10.39;100.00
51849;BME280;38952;51.090;-1.832;2023-05-08T03:33:39;100697.16;;;10.28;100.00
51849;BME280;38952;51.090;-1.832;2023-05-08T03:36:07;100710.91;;;10.34;100.00
51849;BME280;38952;51.090;-1.832;2023-05-08T03:38:33;100694.44;;;10.28;100.00
51849;BME280;38952;51.090;-1.832;2023-05-08T03:41:00;100707.09;;;10.35;100.00
51849;BME280;38952;51.090;-1.832;2023-05-08T03:43:26;100716.75;;;10.42;100.00
51849;BME280;38952;51.090;-1.832;2023-05-08T03:45:53;100714.31;;;10.46;100.00
51849;BME280;38952;51.090;-1.832;2023-05-08T03:48:19;100708.88;;;10.46;100.00
51849;BME280;38952;51.090;-1.832;2023-05-08T03:50:47;100700.13;;;10.49;100.00
51849;BME280;38952;51.090;-1.832;2023-05-08T03:53:13;100709.47;;;10.53;100.00
51849;BME280;38952;51.090;-1.832;2023-05-08T03:55:38;100705.09;;;10.52;100.00
51849;BME280;38952;51.090;-1.832;2023-05-08T04:01:51;100717.81;;;10.69;100.00
51849;BME280;38952;51.090;-1.832;2023-05-08T04:04:01;100712.94;;;10.71;100.00
51849;BME280;38952;51.090;-1.832;2023-05-08T04:06:49;100708.00;;;10.73;100.00
51849;BME280;38952;51.090;-1.832;2023-05-08T04:10:02;100708.63;;;10.80;100.00
51849;BME280;38952;51.090;-1.832;2023-05-08T04:12:51;100698.19;;;10.77;100.00
51849;BME280;38952;51.090;-1.832;2023-05-08T04:15:25;100717.16;;;10.89;100.00
51849;BME280;38952;51.090;-1.832;2023-05-08T04:17:58;100706.53;;;10.92;100.00
51849;BME280;38952;51.090;-1.832;2023-05-08T04:20:26;100706.03;;;10.95;100.00
51849;BME280;38952;51.090;-1.832;2023-05-08T04:22:53;100710.69;;;11.00;100.00
51849;BME280;38952;51.090;-1.832;2023-05-08T04:25:20;100712.91;;;11.03;100.00
51849;BME280;38952;51.090;-1.832;2023-05-08T04:27:47;100710.44;;;11.02;100.00
51849;BME280;38952;51.090;-1.832;2023-05-08T04:30:13;100717.22;;;10.94;100.00
51849;BME280;38952;51.090;-1.832;2023-05-08T04:32:39;100718.84;;;10.90;100.00
51849;BME280;38952;51.090;-1.832;2023-05-08T04:35:05;100709.69;;;10.79;100.00
51849;BME280;38952;51.090;-1.832;2023-05-08T04:37:31;100714.06;;;10.75;100.00
51849;BME280;38952;51.090;-1.832;2023-05-08T04:39:58;100716.53;;;10.76;100.00
51849;BME280;38952;51.090;-1.832;2023-05-08T04:42:23;100718.44;;;10.76;100.00
51849;BME280;38952;51.090;-1.832;2023-05-08T04:44:50;100728.34;;;10.82;100.00
51849;BME280;38952;51.090;-1.832;2023-05-08T04:47:16;100725.63;;;10.87;100.00
51849;BME280;38952;51.090;-1.832;2023-05-08T04:49:42;100723.47;;;10.89;100.00
51849;BME280;38952;51.090;-1.832;2023-05-08T04:52:07;100725.72;;;10.97;100.00
51849;BME280;38952;51.090;-1.832;2023-05-08T04:54:33;100729.06;;;11.05;100.00
51849;BME280;38952;51.090;-1.832;2023-05-08T04:56:58;100730.50;;;11.12;100.00
51849;BME280;38952;51.090;-1.832;2023-05-08T04:59:24;100725.81;;;11.08;100.00
51849;BME280;38952;51.090;-1.832;2023-05-08T05:01:50;100726.38;;;11.10;100.00
51849;BME280;38952;51.090;-1.832;2023-05-08T05:04:15;100734.63;;;11.15;100.00
51849;BME280;38952;51.090;-1.832;2023-05-08T05:06:41;100733.53;;;11.16;100.00
51849;BME280;38952;51.090;-1.832;2023-05-08T05:09:07;100732.19;;;11.18;100.00
51849;BME280;38952;51.090;-1.832;2023-05-08T05:11:33;100741.25;;;11.24;100.00
51849;BME280;38952;51.090;-1.832;2023-05-08T05:13:59;100726.75;;;11.24;100.00
51849;BME280;38952;51.090;-1.832;2023-05-08T05:16:24;100738.03;;;11.32;100.00
51849;BME280;38952;51.090;-1.832;2023-05-08T05:18:50;100739.69;;;11.39;100.00
51849;BME280;38952;51.090;-1.832;2023-05-08T05:21:15;100734.22;;;11.33;100.00
51849;BME280;38952;51.090;-1.832;2023-05-08T05:23:41;100736.16;;;11.38;100.00
51849;BME280;38952;51.090;-1.832;2023-05-08T05:26:06;100736.16;;;11.38;100.00
51849;BME280;38952;51.090;-1.832;2023-05-08T05:28:32;100732.03;;;11.35;100.00
51849;BME280;38952;51.090;-1.832;2023-05-08T05:30:58;100717.72;;;11.23;100.00
51849;BME280;38952;51.090;-1.832;2023-05-08T05:33:23;100732.03;;;11.35;100.00
51849;BME280;38952;51.090;-1.832;2023-05-08T05:36:00;100719.41;;;11.29;100.00
51849;BME280;38952;51.090;-1.832;2023-05-08T05:38:25;100742.78;;;11.47;100.00
51849;BME280;38952;51.090;-1.832;2023-05-08T05:40:51;100735.41;;;11.48;100.00
51849;BME280;38952;51.090;-1.832;2023-05-08T05:43:16;100730.97;;;11.42;100.00
51849;BME280;38952;51.090;-1.832;2023-05-08T05:45:42;100722.25;;;11.45;100.00
51849;BME280;38952;51.090;-1.832;2023-05-08T05:48:09;100726.06;;;11.49;100.00
51849;BME280;38952;51.090;-1.832;2023-05-08T05:50:35;100734.34;;;11.54;100.00
51849;BME280;38952;51.090;-1.832;2023-05-08T05:53:02;100726.72;;;11.61;100.00
51849;BME280;38952;51.090;-1.832;2023-05-08T05:55:27;100731.09;;;11.62;100.00
51849;BME280;38952;51.090;-1.832;2023-05-08T05:57:53;100725.06;;;11.60;100.00
51849;BME280;38952;51.090;-1.832;2023-05-08T06:00:18;100733.38;;;11.76;100.00
51849;BME280;38952;51.090;-1.832;2023-05-08T06:02:45;100735.25;;;11.75;100.00
51849;BME280;38952;51.090;-1.832;2023-05-08T06:05:10;100727.31;;;11.74;100.00
51849;BME280;38952;51.090;-1.832;2023-05-08T06:07:36;100711.13;;;11.67;100.00
51849;BME280;38952;51.090;-1.832;2023-05-08T06:10:02;100729.56;;;11.82;100.00
51849;BME280;38952;51.090;-1.832;2023-05-08T06:12:28;100731.75;;;11.80;100.00
51849;BME280;38952;51.090;-1.832;2023-05-08T06:14:53;100724.03;;;11.72;99.78
51849;BME280;38952;51.090;-1.832;2023-05-08T06:17:21;100736.09;;;11.76;99.57
51849;BME280;38952;51.090;-1.832;2023-05-08T06:19:47;100727.31;;;11.74;99.30
51849;BME280;38952;51.090;-1.832;2023-05-08T06:22:17;100732.25;;;11.77;99.03
51849;BME280;38952;51.090;-1.832;2023-05-08T06:24:43;100722.66;;;11.74;99.47
51849;BME280;38952;51.090;-1.832;2023-05-08T06:27:10;100724.59;;;11.79;99.82
51849;BME280;38952;51.090;-1.832;2023-05-08T06:29:35;100717.47;;;11.78;99.37
51849;BME280;38952;51.090;-1.832;2023-05-08T06:32:01;100732.84;;;11.84;99.58
51849;BME280;38952;51.090;-1.832;2023-05-08T06:34:28;100725.97;;;11.76;100.00
51849;BME280;38952;51.090;-1.832;2023-05-08T06:36:54;100717.41;;;11.67;100.00
51849;BME280;38952;51.090;-1.832;2023-05-08T06:39:19;100734.97;;;11.72;100.00
51849;BME280;38952;51.090;-1.832;2023-05-08T06:41:48;100717.97;;;11.64;100.00
51849;BME280;38952;51.090;-1.832;2023-05-08T06:44:14;100730.31;;;11.67;100.00
51849;BME280;38952;51.090;-1.832;2023-05-08T06:46:40;100732.19;;;11.66;100.00
51849;BME280;38952;51.090;-1.832;2023-05-08T06:49:06;100731.09;;;11.62;100.00
51849;BME280;38952;51.090;-1.832;2023-05-08T06:51:31;100726.72;;;11.61;100.00
51849;BME280;38952;51.090;-1.832;2023-05-08T06:53:57;100727.50;;;11.57;100.00
51849;BME280;38952;51.090;-1.832;2023-05-08T06:56:23;100723.94;;;11.56;100.00
51849;BME280;38952;51.090;-1.832;2023-05-08T06:58:48;100727.19;;;11.53;100.00
51849;BME280;38952;51.090;-1.832;2023-05-08T07:01:14;100725.03;;;11.55;100.00
51849;BME280;38952;51.090;-1.832;2023-05-08T07:03:39;100728.84;;;11.54;100.00
51849;BME280;38952;51.090;-1.832;2023-05-08T07:06:07;100726.06;;;11.49;100.00
51849;BME280;38952;51.090;-1.832;2023-05-08T07:08:33;100727.72;;;11.50;100.00
51849;BME280;38952;51.090;-1.832;2023-05-08T07:10:59;100736.50;;;11.52;100.00
51849;BME280;38952;51.090;-1.832;2023-05-08T07:13:24;100729.41;;;11.51;100.00
51849;BME280;38952;51.090;-1.832;2023-05-08T07:15:50;100728.31;;;11.57;100.00
51849;BME280;38952;51.090;-1.832;2023-05-08T07:18:25;100722.31;;;11.60;100.00
51849;BME280;38952;51.090;-1.832;2023-05-08T07:21:04;100719.31;;;11.62;100.00
51849;BME280;38952;51.090;-1.832;2023-05-08T07:23:40;100723.97;;;11.61;100.00
51849;BME280;38952;51.090;-1.832;2023-05-08T07:26:05;100703.63;;;11.47;100.00
51849;BME280;38952;51.090;-1.832;2023-05-08T07:28:44;100717.09;;;11.53;100.00
51849;BME280;38952;51.090;-1.832;2023-05-08T07:31:24;100702.53;;;11.48;100.00
51849;BME280;38952;51.090;-1.832;2023-05-08T07:33:52;100721.19;;;11.56;100.00
51849;BME280;38952;51.090;-1.832;2023-05-08T07:36:21;100711.31;;;11.50;100.00
51849;BME280;38952;51.090;-1.832;2023-05-08T07:39:10;100721.72;;;11.53;100.00
51849;BME280;38952;51.090;-1.832;2023-05-08T07:41:35;100736.53;;;11.57;100.00
51849;BME280;38952;51.090;-1.832;2023-05-08T07:44:01;100736.50;;;11.52;100.00
51849;BME280;38952;51.090;-1.832;2023-05-08T07:46:42;100714.25;;;11.38;100.00
51849;BME280;38952;51.090;-1.832;2023-05-08T07:49:16;100714.25;;;11.38;100.00
51849;BME280;38952;51.090;-1.832;2023-05-08T07:51:49;100704.09;;;11.33;100.00
51849;BME280;38952;51.090;-1.832;2023-05-08T07:54:15;100723.88;;;11.46;100.00
51849;BME280;38952;51.090;-1.832;2023-05-08T07:56:40;100707.97;;;11.38;100.00
51849;BME280;38952;51.090;-1.832;2023-05-08T07:59:06;100718.97;;;11.48;100.00
51849;BME280;38952;51.090;-1.832;2023-05-08T08:01:46;100712.44;;;11.54;100.00
51849;BME280;38952;51.090;-1.832;2023-05-08T08:04:23;100707.81;;;11.65;100.00
51849;BME280;38952;51.090;-1.832;2023-05-08T08:22:15;100723.91;;;11.51;100.00
51849;BME280;38952;51.090;-1.832;2023-05-08T08:24:43;100706.25;;;11.31;100.00
51849;BME280;38952;51.090;-1.832;2023-05-08T08:27:11;100704.63;;;11.35;100.00
51849;BME280;38952;51.090;-1.832;2023-05-08T08:29:47;100705.50;;;11.36;100.00
51849;BME280;38952;51.090;-1.832;2023-05-08T08:32:23;100746.91;;;11.50;100.00
51849;BME280;38952;51.090;-1.832;2023-05-08T08:35:07;100721.06;;;11.35;100.00
51849;BME280;38952;51.090;-1.832;2023-05-08T08:37:50;100693.63;;;11.25;100.00
51849;BME280;38952;51.090;-1.832;2023-05-08T08:40:26;100693.09;;;11.28;100.00
51849;BME280;38952;51.090;-1.832;2023-05-08T08:42:55;100682.66;;;11.20;100.00
51849;BME280;38952;51.090;-1.832;2023-05-08T08:45:31;100683.47;;;11.21;100.00
51849;BME280;38952;51.090;-1.832;2023-05-08T08:48:00;100696.38;;;11.25;100.00
51849;BME280;38952;51.090;-1.832;2023-05-08T08:50:32;100713.38;;;11.27;100.00
51849;BME280;38952;51.090;-1.832;2023-05-08T08:53:28;100731.47;;;11.33;100.00
51849;BME280;38952;51.090;-1.832;2023-05-08T08:55:57;100708.94;;;11.21;100.00
51849;BME280;38952;51.090;-1.832;2023-05-08T08:58:37;100732.09;;;11.46;100.00
51849;BME280;38952;51.090;-1.832;2023-05-08T09:01:08;100729.22;;;11.73;100.00
51849;BME280;38952;51.090;-1.832;2023-05-08T09:03:39;100714.19;;;11.76;100.00
51849;BME280;38952;51.090;-1.832;2023-05-08T09:06:04;100709.56;;;11.81;100.00
51849;BME280;38952;51.090;-1.832;2023-05-08T10:37:18;100689.53;;;13.97;88.50
51849;BME280;38952;51.090;-1.832;2023-05-08T10:39:45;100695.63;;;13.84;88.78
51849;BME280;38952;51.090;-1.832;2023-05-08T10:42:15;100683.38;;;13.55;90.01
51849;BME280;38952;51.090;-1.832;2023-05-08T10:44:41;100679.28;;;13.42;91.15
51849;BME280;38952;51.090;-1.832;2023-05-08T10:47:23;100685.91;;;13.36;91.55
51849;BME280;38952;51.090;-1.832;2023-05-08T10:50:03;100696.63;;;13.17;92.95
51849;BME280;38952;51.090;-1.832;2023-05-08T10:52:42;100673.84;;;13.01;93.66
51849;BME280;38952;51.090;-1.832;2023-05-08T10:55:21;100694.16;;;13.10;94.51
51849;BME280;38952;51.090;-1.832;2023-05-08T11:03:31;100680.16;;;13.02;94.88
51849;BME280;38952;51.090;-1.832;2023-05-08T11:05:58;100679.31;;;13.12;94.93
51849;BME280;38952;51.090;-1.832;2023-05-08T11:08:25;100660.69;;;12.98;94.98
51849;BME280;38952;51.090;-1.832;2023-05-08T11:15:58;100670.53;;;13.09;95.16
51849;BME280;38952;51.090;-1.832;2023-05-08T11:18:24;100670.53;;;13.09;96.04
51849;BME280;38952;51.090;-1.832;2023-05-08T11:20:55;100670.47;;;13.30;96.55
51849;BME280;38952;51.090;-1.832;2023-05-08T11:23:25;100662.81;;;13.42;95.93
51849;BME280;38952;51.090;-1.832;2023-05-08T11:26:04;100666.84;;;13.66;94.92
51849;BME280;38952;51.090;-1.832;2023-05-08T11:28:38;100676.72;;;13.72;93.71
51849;BME280;38952;51.090;-1.832;2023-05-08T11:31:07;100700.97;;;13.59;93.31
51849;BME280;38952;51.090;-1.832;2023-05-08T11:33:36;100682.63;;;13.19;94.60
51849;BME280;38952;51.090;-1.832;2023-05-08T11:36:23;100674.13;;;13.00;96.70
51849;BME280;38952;51.090;-1.832;2023-05-08T11:39:09;100673.31;;;12.94;97.77
51849;BME280;38952;51.090;-1.832;2023-05-08T11:41:37;100652.16;;;12.95;97.36
51849;BME280;38952;51.090;-1.832;2023-05-08T11:49:35;100625.47;;;13.26;95.53
51849;BME280;38952;51.090;-1.832;2023-05-08T11:52:00;100616.88;;;13.58;95.45
51849;BME280;38952;51.090;-1.832;2023-05-08T11:54:30;100635.38;;;13.98;93.96
51849;BME280;38952;51.090;-1.832;2023-05-08T11:56:57;100619.16;;;13.96;91.58
51849;BME280;38952;51.090;-1.832;2023-05-08T11:59:23;100623.75;;;14.06;91.09
51849;BME280;38952;51.090;-1.832;2023-05-08T12:01:51;100627.88;;;14.08;90.02
51849;BME280;38952;51.090;-1.832;2023-05-08T12:04:16;100634.28;;;13.93;90.46
51849;BME280;38952;51.090;-1.832;2023-05-08T12:06:44;100645.53;;;13.97;91.22
51849;BME280;38952;51.090;-1.832;2023-05-08T12:09:17;100645.75;;;14.11;91.21
51849;BME280;38952;51.090;-1.832;2023-05-08T12:11:55;100652.44;;;13.94;89.87
51849;BME280;38952;51.090;-1.832;2023-05-08T12:14:22;100626.69;;;13.75;90.29
51849;BME280;38952;51.090;-1.832;2023-05-08T12:16:47;100632.75;;;13.72;90.81
51849;BME280;38952;51.090;-1.832;2023-05-08T12:19:13;100644.53;;;13.77;91.60
51849;BME280;38952;51.090;-1.832;2023-05-08T12:21:59;100618.25;;;13.56;91.31
51849;BME280;38952;51.090;-1.832;2023-05-08T12:24:24;100616.88;;;13.58;91.60
51849;BME280;38952;51.090;-1.832;2023-05-08T12:26:54;100625.34;;;13.67;91.89
51849;BME280;38952;51.090;-1.832;2023-05-08T12:29:22;100600.91;;;13.66;92.19
51849;BME280;38952;51.090;-1.832;2023-05-08T12:31:47;100610.69;;;13.87;91.79
51849;BME280;38952;51.090;-1.832;2023-05-08T12:34:13;100612.47;;;14.12;90.96
51849;BME280;38952;51.090;-1.832;2023-05-08T12:36:39;100610.38;;;14.34;89.58
51849;BME280;38952;51.090;-1.832;2023-05-08T12:39:10;100627.25;;;14.56;89.00
51849;BME280;38952;51.090;-1.832;2023-05-08T12:41:49;100590.88;;;14.64;88.21
51849;BME280;38952;51.090;-1.832;2023-05-08T12:51:13;100622.84;;;14.21;88.19
51849;BME280;38952;51.090;-1.832;2023-05-08T12:53:38;100610.00;;;14.06;88.90
51849;BME280;38952;51.090;-1.832;2023-05-08T12:56:04;100627.19;;;13.82;89.74
51849;BME280;38952;51.090;-1.832;2023-05-08T12:58:33;100624.78;;;13.65;91.41
51849;BME280;38952;51.090;-1.832;2023-05-08T13:01:24;100596.84;;;13.48;92.54
51849;BME280;38952;51.090;-1.832;2023-05-08T13:03:51;100599.53;;;13.58;92.93
51849;BME280;38952;51.090;-1.832;2023-05-08T13:06:21;100610.22;;;13.70;93.40
51849;BME280;38952;51.090;-1.832;2023-05-08T13:08:52;100592.09;;;13.64;92.90
51849;BME280;38952;51.090;-1.832;2023-05-08T13:11:31;100601.09;;;13.79;93.05
51849;BME280;38952;51.090;-1.832;2023-05-08T13:13:59;100596.38;;;13.90;92.69
51849;BME280;38952;51.090;-1.832;2023-05-08T13:16:27;100576.28;;;13.95;92.13
51849;BME280;38952;51.090;-1.832;2023-05-08T13:18:53;100566.94;;;13.96;91.87
51849;BME280;38952;51.090;-1.832;2023-05-08T13:21:18;100563.63;;;13.94;92.04
51849;BME280;38952;51.090;-1.832;2023-05-08T13:23:47;100574.03;;;13.97;92.17
51849;BME280;38952;51.090;-1.832;2023-05-08T13:26:17;100579.09;;;13.79;92.36
51849;BME280;38952;51.090;-1.832;2023-05-08T13:28:52;100593.41;;;13.82;93.39
51849;BME280;38952;51.090;-1.832;2023-05-08T13:31:17;100581.63;;;13.71;93.50
51849;BME280;38952;51.090;-1.832;2023-05-08T13:33:53;100588.25;;;13.70;93.78
51849;BME280;38952;51.090;-1.832;2023-05-08T13:36:28;100570.97;;;13.64;93.91
51849;BME280;38952;51.090;-1.832;2023-05-08T13:38:54;100539.66;;;13.60;94.18
51849;BME280;38952;51.090;-1.832;2023-05-08T13:41:21;100560.44;;;13.76;94.01
51849;BME280;38952;51.090;-1.832;2023-05-08T13:43:47;100543.94;;;13.82;93.43
51849;BME280;38952;51.090;-1.832;2023-05-08T13:46:12;100548.00;;;13.84;93.30
51849;BME280;38952;51.090;-1.832;2023-05-08T13:48:40;100543.31;;;13.90;93.19
51849;BME280;38952;51.090;-1.832;2023-05-08T13:51:05;100543.84;;;13.92;93.21
51849;BME280;38952;51.090;-1.832;2023-05-08T13:53:30;100537.81;;;13.90;93.14
51849;BME280;38952;51.090;-1.832;2023-05-08T13:55:56;100555.28;;;14.09;93.36
51849;BME280;38952;51.090;-1.832;2023-05-08T13:58:22;100556.59;;;14.17;92.90
51849;BME280;38952;51.090;-1.832;2023-05-08T14:00:47;100539.47;;;13.91;92.89
51849;BME280;38952;51.090;-1.832;2023-05-08T14:03:24;100518.69;;;13.74;93.32
51849;BME280;38952;51.090;-1.832;2023-05-08T14:05:49;100559.81;;;13.90;93.81
51849;BME280;38952;51.090;-1.832;2023-05-08T14:08:33;100533.00;;;13.71;94.60
51849;BME280;38952;51.090;-1.832;2023-05-08T14:11:01;100534.91;;;13.76;95.06
51849;BME280;38952;51.090;-1.832;2023-05-08T14:13:29;100539.50;;;13.86;95.41
51849;BME280;38952;51.090;-1.832;2023-05-08T14:15:55;100534.47;;;13.93;95.25
51849;BME280;38952;51.090;-1.832;2023-05-08T14:18:25;100518.47;;;14.05;94.29
51849;BME280;38952;51.090;-1.832;2023-05-08T14:20:50;100513.16;;;14.14;93.58
51849;BME280;38952;51.090;-1.832;2023-05-08T14:23:16;100524.22;;;14.38;93.11
51849;BME280;38952;51.090;-1.832;2023-05-08T14:25:41;100523.09;;;14.44;90.86
51849;BME280;38952;51.090;-1.832;2023-05-08T14:28:07;100520.13;;;14.36;91.30
51849;BME280;38952;51.090;-1.832;2023-05-08T14:30:32;100536.44;;;14.56;90.73
51849;BME280;38952;51.090;-1.832;2023-05-08T14:33:00;100518.00;;;14.62;90.36
51849;BME280;38952;51.090;-1.832;2023-05-08T14:35:26;100537.19;;;14.67;89.19
51849;BME280;38952;51.090;-1.832;2023-05-08T14:37:51;100537.13;;;14.43;89.83
51849;BME280;38952;51.090;-1.832;2023-05-08T14:40:17;100518.81;;;14.28;91.19
51849;BME280;38952;51.090;-1.832;2023-05-08T14:42:45;100514.34;;;14.03;91.66
51849;BME280;38952;51.090;-1.832;2023-05-08T14:45:18;100514.72;;;13.91;92.75
51849;BME280;38952;51.090;-1.832;2023-05-08T14:47:46;100512.56;;;13.83;94.25
51849;BME280;38952;51.090;-1.832;2023-05-08T14:50:14;100521.94;;;13.82;94.87
51849;BME280;38952;51.090;-1.832;2023-05-08T14:52:42;100538.94;;;13.89;95.75
51849;BME280;38952;51.090;-1.832;2023-05-08T14:55:10;100528.25;;;13.82;95.83
51849;BME280;38952;51.090;-1.832;2023-05-08T14:57:36;100524.13;;;13.85;96.37
51849;BME280;38952;51.090;-1.832;2023-05-08T15:00:02;100535.06;;;13.90;96.35
51849;BME280;38952;51.090;-1.832;2023-05-08T15:02:28;100529.06;;;13.83;96.55
51849;BME280;38952;51.090;-1.832;2023-05-08T15:05:01;100524.13;;;13.79;97.33
51849;BME280;38952;51.090;-1.832;2023-05-08T15:07:26;100514.78;;;13.81;97.48
51849;BME280;38952;51.090;-1.832;2023-05-08T15:09:52;100523.81;;;13.86;97.94